sensor_id;sensor_type;location;lat;lon;timestamp;temperature;humidity
4103;DHT22;2065;49.790;9.620;2023-03-01T00:00:05;5.30;44.10
4103;DHT22;2065;49.790;9.620;2023-03-01T00:02:37;5.20;44.10
4103;DHT22;2065;49.790;9.620;2023-03-01T00:05:05;5.20;44.40
4103;DHT22;2065;49.790;9.620;2023-03-01T00:07:37;5.20;44.50
4103;DHT22;2065;49.790;9.620;2023-03-01T00:10:04;5.10;44.70
4103;DHT22;2065;49.790;9.620;2023-03-01T00:12:31;5.10;44.30
4103;DHT22;2065;49.790;9.620;2023-03-01T00:14:58;5.10;44.90
4103;DHT22;2065;49.790;9.620;2023-03-01T00:17:26;4.90;45.30
4103;DHT22;2065;49.790;9.620;2023-03-01T00:19:54;4.70;45.30
4103;DHT22;2065;49.790;9.620;2023-03-01T00:22:21;4.70;45.60
4103;DHT22;2065;49.790;9.620;2023-03-01T00:24:50;4.80;45.20
4103;DHT22;2065;49.790;9.620;2023-03-01T00:27:17;4.80;45.40
4103;DHT22;2065;49.790;9.620;2023-03-01T00:29:44;4.70;45.90
4103;DHT22;2065;49.790;9.620;2023-03-01T00:32:11;4.80;45.90
4103;DHT22;2065;49.790;9.620;2023-03-01T00:34:37;4.80;45.50
4103;DHT22;2065;49.790;9.620;2023-03-01T00:37:04;4.80;45.70
4103;DHT22;2065;49.790;9.620;2023-03-01T00:39:32;4.90;45.90
4103;DHT22;2065;49.790;9.620;2023-03-01T00:42:00;4.90;45.80
4103;DHT22;2065;49.790;9.620;2023-03-01T00:44:27;4.90;45.70
4103;DHT22;2065;49.790;9.620;2023-03-01T00:46:54;5.00;45.80
4103;DHT22;2065;49.790;9.620;2023-03-01T00:49:21;5.00;45.50
4103;DHT22;2065;49.790;9.620;2023-03-01T00:51:49;5.10;45.20
4103;DHT22;2065;49.790;9.620;2023-03-01T00:54:16;5.10;44.90
4103;DHT22;2065;49.790;9.620;2023-03-01T00:56:43;5.10;44.70
4103;DHT22;2065;49.790;9.620;2023-03-01T00:59:11;5.10;44.90
4103;DHT22;2065;49.790;9.620;2023-03-01T01:01:39;5.10;44.80
4103;DHT22;2065;49.790;9.620;2023-03-01T01:04:07;5.00;44.60
4103;DHT22;2065;49.790;9.620;2023-03-01T01:06:37;5.00;44.80
4103;DHT22;2065;49.790;9.620;2023-03-01T01:09:05;4.60;45.60
4103;DHT22;2065;49.790;9.620;2023-03-01T01:11:33;4.50;44.90
4103;DHT22;2065;49.790;9.620;2023-03-01T01:14:02;4.40;45.00
4103;DHT22;2065;49.790;9.620;2023-03-01T01:16:30;4.20;45.10
4103;DHT22;2065;49.790;9.620;2023-03-01T01:18:57;4.00;45.70
4103;DHT22;2065;49.790;9.620;2023-03-01T01:21:25;3.90;46.10
4103;DHT22;2065;49.790;9.620;2023-03-01T01:23:53;3.80;47.30
4103;DHT22;2065;49.790;9.620;2023-03-01T01:26:22;3.70;46.90
4103;DHT22;2065;49.790;9.620;2023-03-01T01:28:49;3.60;46.50
4103;DHT22;2065;49.790;9.620;2023-03-01T01:31:18;3.70;46.30
4103;DHT22;2065;49.790;9.620;2023-03-01T01:33:46;3.70;46.70
4103;DHT22;2065;49.790;9.620;2023-03-01T01:36:13;3.70;46.50
4103;DHT22;2065;49.790;9.620;2023-03-01T01:38:40;3.50;47.00
4103;DHT22;2065;49.790;9.620;2023-03-01T01:41:09;3.50;47.50
4103;DHT22;2065;49.790;9.620;2023-03-01T01:43:39;3.60;47.70
4103;DHT22;2065;49.790;9.620;2023-03-01T01:46:16;3.80;48.30
4103;DHT22;2065;49.790;9.620;2023-03-01T01:48:52;3.80;48.00
4103;DHT22;2065;49.790;9.620;2023-03-01T01:51:22;4.10;47.50
4103;DHT22;2065;49.790;9.620;2023-03-01T01:53:53;4.20;46.80
4103;DHT22;2065;49.790;9.620;2023-03-01T01:56:23;4.30;46.70
4103;DHT22;2065;49.790;9.620;2023-03-01T01:58:51;4.40;46.80
4103;DHT22;2065;49.790;9.620;2023-03-01T02:01:18;4.50;46.10
4103;DHT22;2065;49.790;9.620;2023-03-01T02:03:48;4.50;45.60
4103;DHT22;2065;49.790;9.620;2023-03-01T02:06:19;4.50;45.30
4103;DHT22;2065;49.790;9.620;2023-03-01T02:08:49;4.50;46.20
4103;DHT22;2065;49.790;9.620;2023-03-01T02:11:17;4.50;46.20
4103;DHT22;2065;49.790;9.620;2023-03-01T02:13:47;4.50;46.30
4103;DHT22;2065;49.790;9.620;2023-03-01T02:16:15;4.60;46.00
4103;DHT22;2065;49.790;9.620;2023-03-01T02:18:43;4.60;46.00
4103;DHT22;2065;49.790;9.620;2023-03-01T02:21:29;4.30;46.50
4103;DHT22;2065;49.790;9.620;2023-03-01T02:23:59;4.20;46.90
4103;DHT22;2065;49.790;9.620;2023-03-01T02:26:36;4.30;46.60
4103;DHT22;2065;49.790;9.620;2023-03-01T02:29:08;4.40;46.10
4103;DHT22;2065;49.790;9.620;2023-03-01T02:31:35;4.40;45.90
4103;DHT22;2065;49.790;9.620;2023-03-01T02:34:10;4.30;46.20
4103;DHT22;2065;49.790;9.620;2023-03-01T02:36:39;4.30;47.00
4103;DHT22;2065;49.790;9.620;2023-03-01T02:39:12;4.30;46.50
4103;DHT22;2065;49.790;9.620;2023-03-01T02:41:45;4.20;46.00
4103;DHT22;2065;49.790;9.620;2023-03-01T02:44:14;4.10;46.20
4103;DHT22;2065;49.790;9.620;2023-03-01T02:46:43;4.00;46.40
4103;DHT22;2065;49.790;9.620;2023-03-01T02:49:23;4.00;46.50
4103;DHT22;2065;49.790;9.620;2023-03-01T02:52:05;4.10;46.40
4103;DHT22;2065;49.790;9.620;2023-03-01T02:54:40;4.10;45.90
4103;DHT22;2065;49.790;9.620;2023-03-01T02:57:08;4.10;46.10
4103;DHT22;2065;49.790;9.620;2023-03-01T02:59:38;4.20;46.50
4103;DHT22;2065;49.790;9.620;2023-03-01T03:02:07;4.10;45.80
4103;DHT22;2065;49.790;9.620;2023-03-01T03:04:34;4.10;45.90
4103;DHT22;2065;49.790;9.620;2023-03-01T03:07:01;4.10;46.20
4103;DHT22;2065;49.790;9.620;2023-03-01T03:09:28;4.10;46.50
4103;DHT22;2065;49.790;9.620;2023-03-01T03:11:56;4.20;46.00
4103;DHT22;2065;49.790;9.620;2023-03-01T03:14:23;4.00;45.40
4103;DHT22;2065;49.790;9.620;2023-03-01T03:16:51;3.80;46.30
4103;DHT22;2065;49.790;9.620;2023-03-01T03:19:19;3.80;46.90
4103;DHT22;2065;49.790;9.620;2023-03-01T03:21:46;3.80;46.60
4103;DHT22;2065;49.790;9.620;2023-03-01T03:24:13;3.70;46.50
4103;DHT22;2065;49.790;9.620;2023-03-01T03:26:40;3.70;46.50
4103;DHT22;2065;49.790;9.620;2023-03-01T03:29:07;3.70;46.40
4103;DHT22;2065;49.790;9.620;2023-03-01T03:31:34;3.70;46.40
4103;DHT22;2065;49.790;9.620;2023-03-01T03:34:02;3.70;46.70
4103;DHT22;2065;49.790;9.620;2023-03-01T03:36:29;3.60;47.10
4103;DHT22;2065;49.790;9.620;2023-03-01T03:38:56;3.70;47.00
4103;DHT22;2065;49.790;9.620;2023-03-01T03:41:23;3.50;47.10
4103;DHT22;2065;49.790;9.620;2023-03-01T03:43:50;3.40;47.30
4103;DHT22;2065;49.790;9.620;2023-03-01T03:46:17;3.30;47.80
4103;DHT22;2065;49.790;9.620;2023-03-01T03:48:45;3.40;47.90
4103;DHT22;2065;49.790;9.620;2023-03-01T03:51:15;3.30;48.00
4103;DHT22;2065;49.790;9.620;2023-03-01T03:53:43;3.20;48.30
4103;DHT22;2065;49.790;9.620;2023-03-01T03:56:10;3.20;47.40
4103;DHT22;2065;49.790;9.620;2023-03-01T03:58:37;3.10;47.50
4103;DHT22;2065;49.790;9.620;2023-03-01T04:01:05;3.20;47.80
4103;DHT22;2065;49.790;9.620;2023-03-01T04:03:32;3.30;48.10
4103;DHT22;2065;49.790;9.620;2023-03-01T04:06:01;3.30;47.40
4103;DHT22;2065;49.790;9.620;2023-03-01T04:08:29;3.20;47.50
4103;DHT22;2065;49.790;9.620;2023-03-01T04:11:01;3.00;49.10
4103;DHT22;2065;49.790;9.620;2023-03-01T04:13:51;3.00;48.70
4103;DHT22;2065;49.790;9.620;2023-03-01T04:16:18;3.10;48.60
4103;DHT22;2065;49.790;9.620;2023-03-01T04:18:45;3.10;48.80
4103;DHT22;2065;49.790;9.620;2023-03-01T04:21:12;3.30;48.50
4103;DHT22;2065;49.790;9.620;2023-03-01T04:23:40;3.50;48.00
4103;DHT22;2065;49.790;9.620;2023-03-01T04:26:07;3.60;47.60
4103;DHT22;2065;49.790;9.620;2023-03-01T04:28:36;3.70;47.70
4103;DHT22;2065;49.790;9.620;2023-03-01T04:31:05;3.30;48.50
4103;DHT22;2065;49.790;9.620;2023-03-01T04:33:38;3.40;48.30
4103;DHT22;2065;49.790;9.620;2023-03-01T04:36:07;3.40;48.00
4103;DHT22;2065;49.790;9.620;2023-03-01T04:38:35;3.50;47.90
4103;DHT22;2065;49.790;9.620;2023-03-01T04:41:06;3.50;47.90
4103;DHT22;2065;49.790;9.620;2023-03-01T04:43:34;3.50;48.00
4103;DHT22;2065;49.790;9.620;2023-03-01T04:46:01;3.40;48.30
4103;DHT22;2065;49.790;9.620;2023-03-01T04:48:30;3.60;48.00
4103;DHT22;2065;49.790;9.620;2023-03-01T04:50:58;3.80;47.80
4103;DHT22;2065;49.790;9.620;2023-03-01T04:53:25;3.80;47.30
4103;DHT22;2065;49.790;9.620;2023-03-01T04:55:53;3.90;47.10
4103;DHT22;2065;49.790;9.620;2023-03-01T04:58:22;3.90;47.00
4103;DHT22;2065;49.790;9.620;2023-03-01T05:00:49;3.80;46.90
4103;DHT22;2065;49.790;9.620;2023-03-01T05:03:16;3.60;47.50
4103;DHT22;2065;49.790;9.620;2023-03-01T05:05:45;3.70;47.40
4103;DHT22;2065;49.790;9.620;2023-03-01T05:08:13;3.70;47.10
4103;DHT22;2065;49.790;9.620;2023-03-01T05:10:45;3.60;46.90
4103;DHT22;2065;49.790;9.620;2023-03-01T05:13:13;3.60;47.10
4103;DHT22;2065;49.790;9.620;2023-03-01T05:15:48;3.70;47.40
4103;DHT22;2065;49.790;9.620;2023-03-01T05:18:15;3.70;47.30
4103;DHT22;2065;49.790;9.620;2023-03-01T05:20:43;3.80;47.10
4103;DHT22;2065;49.790;9.620;2023-03-01T05:23:10;3.80;47.80
4103;DHT22;2065;49.790;9.620;2023-03-01T05:25:37;3.90;47.40
4103;DHT22;2065;49.790;9.620;2023-03-01T05:28:07;3.90;47.10
4103;DHT22;2065;49.790;9.620;2023-03-01T05:30:37;4.00;46.90
4103;DHT22;2065;49.790;9.620;2023-03-01T05:33:07;3.90;47.00
4103;DHT22;2065;49.790;9.620;2023-03-01T05:35:39;4.00;46.80
4103;DHT22;2065;49.790;9.620;2023-03-01T05:38:08;3.90;47.10
4103;DHT22;2065;49.790;9.620;2023-03-01T05:40:39;3.90;47.40
4103;DHT22;2065;49.790;9.620;2023-03-01T05:43:06;3.80;47.10
4103;DHT22;2065;49.790;9.620;2023-03-01T05:45:36;3.80;47.60
4103;DHT22;2065;49.790;9.620;2023-03-01T05:48:04;3.90;46.90
4103;DHT22;2065;49.790;9.620;2023-03-01T05:50:35;3.80;46.80
4103;DHT22;2065;49.790;9.620;2023-03-01T05:53:03;3.90;47.20
4103;DHT22;2065;49.790;9.620;2023-03-01T05:55:31;3.90;46.90
4103;DHT22;2065;49.790;9.620;2023-03-01T05:57:59;4.00;46.70
4103;DHT22;2065;49.790;9.620;2023-03-01T06:00:28;4.00;47.40
4103;DHT22;2065;49.790;9.620;2023-03-01T06:02:56;4.10;46.70
4103;DHT22;2065;49.790;9.620;2023-03-01T06:05:25;4.10;46.30
4103;DHT22;2065;49.790;9.620;2023-03-01T06:07:53;3.90;46.90
4103;DHT22;2065;49.790;9.620;2023-03-01T06:10:22;4.00;46.90
4103;DHT22;2065;49.790;9.620;2023-03-01T06:12:49;4.00;46.60
4103;DHT22;2065;49.790;9.620;2023-03-01T06:15:17;4.00;46.90
4103;DHT22;2065;49.790;9.620;2023-03-01T06:17:45;4.00;46.80
4103;DHT22;2065;49.790;9.620;2023-03-01T06:20:14;4.00;46.80
4103;DHT22;2065;49.790;9.620;2023-03-01T06:22:42;4.00;46.30
4103;DHT22;2065;49.790;9.620;2023-03-01T06:25:11;4.00;46.30
4103;DHT22;2065;49.790;9.620;2023-03-01T06:27:40;4.10;46.70
4103;DHT22;2065;49.790;9.620;2023-03-01T06:30:08;4.10;46.60
4103;DHT22;2065;49.790;9.620;2023-03-01T06:32:36;4.10;46.60
4103;DHT22;2065;49.790;9.620;2023-03-01T06:35:03;4.20;46.70
4103;DHT22;2065;49.790;9.620;2023-03-01T06:37:30;4.20;46.50
4103;DHT22;2065;49.790;9.620;2023-03-01T06:39:57;4.30;46.40
4103;DHT22;2065;49.790;9.620;2023-03-01T06:42:26;4.20;46.20
4103;DHT22;2065;49.790;9.620;2023-03-01T06:44:52;4.30;46.40
4103;DHT22;2065;49.790;9.620;2023-03-01T06:47:19;4.20;46.60
4103;DHT22;2065;49.790;9.620;2023-03-01T06:49:46;4.30;46.60
4103;DHT22;2065;49.790;9.620;2023-03-01T06:52:13;4.30;46.80
4103;DHT22;2065;49.790;9.620;2023-03-01T06:54:40;4.30;46.90
4103;DHT22;2065;49.790;9.620;2023-03-01T06:57:07;4.30;46.80
4103;DHT22;2065;49.790;9.620;2023-03-01T06:59:35;4.30;46.80
4103;DHT22;2065;49.790;9.620;2023-03-01T07:02:02;4.30;46.90
4103;DHT22;2065;49.790;9.620;2023-03-01T07:04:29;4.30;46.40
4103;DHT22;2065;49.790;9.620;2023-03-01T07:06:56;4.40;46.30
4103;DHT22;2065;49.790;9.620;2023-03-01T07:09:23;4.40;46.30
4103;DHT22;2065;49.790;9.620;2023-03-01T07:11:50;4.30;46.30
4103;DHT22;2065;49.790;9.620;2023-03-01T07:14:17;4.20;46.30
4103;DHT22;2065;49.790;9.620;2023-03-01T07:16:46;4.30;46.60
4103;DHT22;2065;49.790;9.620;2023-03-01T07:19:13;4.30;47.00
4103;DHT22;2065;49.790;9.620;2023-03-01T07:21:40;4.30;46.80
4103;DHT22;2065;49.790;9.620;2023-03-01T07:24:08;4.10;46.80
4103;DHT22;2065;49.790;9.620;2023-03-01T07:26:35;4.10;46.90
4103;DHT22;2065;49.790;9.620;2023-03-01T07:29:04;4.00;47.20
4103;DHT22;2065;49.790;9.620;2023-03-01T07:31:31;4.00;47.60
4103;DHT22;2065;49.790;9.620;2023-03-01T07:33:59;4.10;47.70
4103;DHT22;2065;49.790;9.620;2023-03-01T07:36:26;4.20;47.40
4103;DHT22;2065;49.790;9.620;2023-03-01T07:38:53;4.30;47.00
4103;DHT22;2065;49.790;9.620;2023-03-01T07:41:21;4.30;47.20
4103;DHT22;2065;49.790;9.620;2023-03-01T07:43:48;4.30;47.40
4103;DHT22;2065;49.790;9.620;2023-03-01T07:46:15;4.20;47.20
4103;DHT22;2065;49.790;9.620;2023-03-01T07:48:43;4.30;47.30
4103;DHT22;2065;49.790;9.620;2023-03-01T07:51:11;4.20;47.20
4103;DHT22;2065;49.790;9.620;2023-03-01T07:53:38;4.30;47.30
4103;DHT22;2065;49.790;9.620;2023-03-01T07:56:07;4.50;47.20
4103;DHT22;2065;49.790;9.620;2023-03-01T07:58:34;4.60;47.00
4103;DHT22;2065;49.790;9.620;2023-03-01T08:01:02;4.70;46.70
4103;DHT22;2065;49.790;9.620;2023-03-01T08:03:29;4.70;46.50
4103;DHT22;2065;49.790;9.620;2023-03-01T08:05:58;4.70;46.70
4103;DHT22;2065;49.790;9.620;2023-03-01T08:08:27;4.60;46.60
4103;DHT22;2065;49.790;9.620;2023-03-01T08:10:56;4.30;46.90
4103;DHT22;2065;49.790;9.620;2023-03-01T08:13:23;4.40;47.20
4103;DHT22;2065;49.790;9.620;2023-03-01T08:15:51;4.50;46.90
4103;DHT22;2065;49.790;9.620;2023-03-01T08:18:19;4.50;46.60
4103;DHT22;2065;49.790;9.620;2023-03-01T08:20:47;4.60;46.70
4103;DHT22;2065;49.790;9.620;2023-03-01T08:23:14;4.70;46.30
4103;DHT22;2065;49.790;9.620;2023-03-01T08:25:42;4.70;46.10
4103;DHT22;2065;49.790;9.620;2023-03-01T08:28:09;4.70;46.10
4103;DHT22;2065;49.790;9.620;2023-03-01T08:30:36;4.50;46.30
4103;DHT22;2065;49.790;9.620;2023-03-01T08:33:03;4.60;46.80
4103;DHT22;2065;49.790;9.620;2023-03-01T08:35:30;4.70;46.50
4103;DHT22;2065;49.790;9.620;2023-03-01T08:37:56;4.70;46.20
4103;DHT22;2065;49.790;9.620;2023-03-01T08:40:23;4.90;46.40
4103;DHT22;2065;49.790;9.620;2023-03-01T08:42:52;5.10;46.00
4103;DHT22;2065;49.790;9.620;2023-03-01T08:45:18;4.70;46.10
4103;DHT22;2065;49.790;9.620;2023-03-01T08:47:45;4.80;46.80
4103;DHT22;2065;49.790;9.620;2023-03-01T08:50:12;5.10;46.30
4103;DHT22;2065;49.790;9.620;2023-03-01T08:52:39;5.00;45.70
4103;DHT22;2065;49.790;9.620;2023-03-01T08:55:07;5.00;45.40
4103;DHT22;2065;49.790;9.620;2023-03-01T08:57:34;5.20;45.30
4103;DHT22;2065;49.790;9.620;2023-03-01T09:00:03;5.20;45.10
4103;DHT22;2065;49.790;9.620;2023-03-01T09:02:34;5.20;45.80
4103;DHT22;2065;49.790;9.620;2023-03-01T09:05:01;5.40;45.10
4103;DHT22;2065;49.790;9.620;2023-03-01T09:07:28;5.40;44.90
4103;DHT22;2065;49.790;9.620;2023-03-01T09:09:55;5.60;44.80
4103;DHT22;2065;49.790;9.620;2023-03-01T09:12:22;5.40;44.50
4103;DHT22;2065;49.790;9.620;2023-03-01T09:14:50;5.40;45.10
4103;DHT22;2065;49.790;9.620;2023-03-01T09:17:18;5.60;44.70
4103;DHT22;2065;49.790;9.620;2023-03-01T09:19:47;5.60;44.20
4103;DHT22;2065;49.790;9.620;2023-03-01T09:22:14;5.70;44.10
4103;DHT22;2065;49.790;9.620;2023-03-01T09:24:41;5.50;43.90
4103;DHT22;2065;49.790;9.620;2023-03-01T09:27:08;5.60;44.10
4103;DHT22;2065;49.790;9.620;2023-03-01T09:29:36;5.60;44.00
4103;DHT22;2065;49.790;9.620;2023-03-01T09:32:03;5.70;44.40
4103;DHT22;2065;49.790;9.620;2023-03-01T09:34:31;5.70;44.30
4103;DHT22;2065;49.790;9.620;2023-03-01T09:37:18;5.80;44.10
4103;DHT22;2065;49.790;9.620;2023-03-01T09:39:45;5.70;43.70
4103;DHT22;2065;49.790;9.620;2023-03-01T09:42:12;6.00;44.30
4103;DHT22;2065;49.790;9.620;2023-03-01T09:44:45;6.30;44.00
4103;DHT22;2065;49.790;9.620;2023-03-01T09:47:17;6.40;43.30
4103;DHT22;2065;49.790;9.620;2023-03-01T09:49:57;6.50;43.40
4103;DHT22;2065;49.790;9.620;2023-03-01T09:52:30;6.90;43.50
4103;DHT22;2065;49.790;9.620;2023-03-01T09:55:00;7.00;42.50
4103;DHT22;2065;49.790;9.620;2023-03-01T09:57:32;6.90;42.20
4103;DHT22;2065;49.790;9.620;2023-03-01T10:00:31;7.10;41.90
4103;DHT22;2065;49.790;9.620;2023-03-01T10:03:07;7.10;40.80
4103;DHT22;2065;49.790;9.620;2023-03-01T10:05:43;6.80;41.20
4103;DHT22;2065;49.790;9.620;2023-03-01T10:08:29;6.80;41.50
4103;DHT22;2065;49.790;9.620;2023-03-01T10:11:02;6.80;41.00
4103;DHT22;2065;49.790;9.620;2023-03-01T10:13:35;7.00;41.00
4103;DHT22;2065;49.790;9.620;2023-03-01T10:16:11;7.30;41.00
4103;DHT22;2065;49.790;9.620;2023-03-01T10:18:41;7.40;40.60
4103;DHT22;2065;49.790;9.620;2023-03-01T10:21:14;7.60;40.10
4103;DHT22;2065;49.790;9.620;2023-03-01T10:23:42;7.80;39.80
4103;DHT22;2065;49.790;9.620;2023-03-01T10:26:27;7.70;39.60
4103;DHT22;2065;49.790;9.620;2023-03-01T10:29:01;8.00;39.90
4103;DHT22;2065;49.790;9.620;2023-03-01T10:31:39;8.20;39.00
4103;DHT22;2065;49.790;9.620;2023-03-01T10:34:12;8.30;38.80
4103;DHT22;2065;49.790;9.620;2023-03-01T10:36:42;8.50;38.50
4103;DHT22;2065;49.790;9.620;2023-03-01T10:39:15;8.60;37.90
4103;DHT22;2065;49.790;9.620;2023-03-01T10:42:01;8.70;38.10
4103;DHT22;2065;49.790;9.620;2023-03-01T10:44:43;8.90;37.20
4103;DHT22;2065;49.790;9.620;2023-03-01T10:47:18;8.50;37.40
4103;DHT22;2065;49.790;9.620;2023-03-01T10:49:56;8.60;38.20
4103;DHT22;2065;49.790;9.620;2023-03-01T10:52:30;8.80;37.50
4103;DHT22;2065;49.790;9.620;2023-03-01T10:54:59;8.70;37.40
4103;DHT22;2065;49.790;9.620;2023-03-01T10:57:36;8.80;37.30
4103;DHT22;2065;49.790;9.620;2023-03-01T11:00:17;9.00;37.00
4103;DHT22;2065;49.790;9.620;2023-03-01T11:02:48;9.30;36.60
4103;DHT22;2065;49.790;9.620;2023-03-01T11:05:23;9.40;35.70
4103;DHT22;2065;49.790;9.620;2023-03-01T11:07:53;9.50;36.50
4103;DHT22;2065;49.790;9.620;2023-03-01T11:10:24;9.80;36.40
4103;DHT22;2065;49.790;9.620;2023-03-01T11:12:52;9.70;36.00
4103;DHT22;2065;49.790;9.620;2023-03-01T11:15:24;9.90;35.60
4103;DHT22;2065;49.790;9.620;2023-03-01T11:17:51;9.70;35.70
4103;DHT22;2065;49.790;9.620;2023-03-01T11:20:25;9.80;36.20
4103;DHT22;2065;49.790;9.620;2023-03-01T11:22:56;9.90;35.20
4103;DHT22;2065;49.790;9.620;2023-03-01T11:25:26;9.70;36.00
4103;DHT22;2065;49.790;9.620;2023-03-01T11:27:55;9.80;34.90
4103;DHT22;2065;49.790;9.620;2023-03-01T11:30:26;10.00;34.10
4103;DHT22;2065;49.790;9.620;2023-03-01T11:33:05;9.90;34.60
4103;DHT22;2065;49.790;9.620;2023-03-01T11:35:37;10.10;34.30
4103;DHT22;2065;49.790;9.620;2023-03-01T11:38:16;10.20;33.70
4103;DHT22;2065;49.790;9.620;2023-03-01T11:40:47;10.50;33.20
4103;DHT22;2065;49.790;9.620;2023-03-01T11:43:23;10.30;33.60
4103;DHT22;2065;49.790;9.620;2023-03-01T11:46:24;10.20;33.60
4103;DHT22;2065;49.790;9.620;2023-03-01T11:49:06;10.30;34.30
4103;DHT22;2065;49.790;9.620;2023-03-01T11:51:43;10.40;33.00
4103;DHT22;2065;49.790;9.620;2023-03-01T11:54:21;10.50;33.90
4103;DHT22;2065;49.790;9.620;2023-03-01T11:56:55;10.60;33.00
4103;DHT22;2065;49.790;9.620;2023-03-01T11:59:59;10.50;32.90
4103;DHT22;2065;49.790;9.620;2023-03-01T12:02:59;10.70;33.80
4103;DHT22;2065;49.790;9.620;2023-03-01T12:05:51;10.90;32.80
4103;DHT22;2065;49.790;9.620;2023-03-01T12:08:28;10.70;32.90
4103;DHT22;2065;49.790;9.620;2023-03-01T12:11:03;10.80;33.50
4103;DHT22;2065;49.790;9.620;2023-03-01T12:13:56;11.10;33.30
4103;DHT22;2065;49.790;9.620;2023-03-01T12:16:40;11.30;32.80
4103;DHT22;2065;49.790;9.620;2023-03-01T12:19:26;11.30;32.60
4103;DHT22;2065;49.790;9.620;2023-03-01T12:22:09;11.60;32.10
4103;DHT22;2065;49.790;9.620;2023-03-01T12:27:57;12.00;32.20
4103;DHT22;2065;49.790;9.620;2023-03-01T12:30:33;11.80;31.20
4103;DHT22;2065;49.790;9.620;2023-03-01T12:33:14;11.70;31.10
4103;DHT22;2065;49.790;9.620;2023-03-01T12:35:58;11.80;31.00
4103;DHT22;2065;49.790;9.620;2023-03-01T12:38:33;11.80;31.50
4103;DHT22;2065;49.790;9.620;2023-03-01T12:41:35;11.80;31.00
4103;DHT22;2065;49.790;9.620;2023-03-01T12:44:24;11.40;32.30
4103;DHT22;2065;49.790;9.620;2023-03-01T12:47:12;11.70;31.60
4103;DHT22;2065;49.790;9.620;2023-03-01T12:49:46;11.70;30.60
4103;DHT22;2065;49.790;9.620;2023-03-01T12:52:18;11.40;31.20
4103;DHT22;2065;49.790;9.620;2023-03-01T12:54:49;11.60;31.60
4103;DHT22;2065;49.790;9.620;2023-03-01T12:57:23;12.10;32.00
4103;DHT22;2065;49.790;9.620;2023-03-01T13:00:05;12.30;30.70
4103;DHT22;2065;49.790;9.620;2023-03-01T13:02:40;12.30;30.60
4103;DHT22;2065;49.790;9.620;2023-03-01T13:05:26;12.50;31.40
4103;DHT22;2065;49.790;9.620;2023-03-01T13:08:01;12.10;30.60
4103;DHT22;2065;49.790;9.620;2023-03-01T13:10:34;12.10;30.90
4103;DHT22;2065;49.790;9.620;2023-03-01T13:13:14;12.30;30.70
4103;DHT22;2065;49.790;9.620;2023-03-01T13:15:42;12.70;30.50
4103;DHT22;2065;49.790;9.620;2023-03-01T13:18:32;12.70;30.20
4103;DHT22;2065;49.790;9.620;2023-03-01T13:21:04;12.90;30.50
4103;DHT22;2065;49.790;9.620;2023-03-01T13:23:34;13.40;30.10
4103;DHT22;2065;49.790;9.620;2023-03-01T13:26:16;13.20;29.50
4103;DHT22;2065;49.790;9.620;2023-03-01T13:32:01;12.90;29.90
4103;DHT22;2065;49.790;9.620;2023-03-01T13:34:47;12.50;29.90
4103;DHT22;2065;49.790;9.620;2023-03-01T13:37:29;12.40;30.40
4103;DHT22;2065;49.790;9.620;2023-03-01T13:39:58;12.90;30.40
4103;DHT22;2065;49.790;9.620;2023-03-01T13:42:38;12.80;30.10
4103;DHT22;2065;49.790;9.620;2023-03-01T13:45:21;12.60;30.00
4103;DHT22;2065;49.790;9.620;2023-03-01T13:47:54;12.50;29.80
4103;DHT22;2065;49.790;9.620;2023-03-01T13:50:27;12.50;30.00
4103;DHT22;2065;49.790;9.620;2023-03-01T13:52:56;12.40;30.00
4103;DHT22;2065;49.790;9.620;2023-03-01T13:55:36;12.70;30.30
4103;DHT22;2065;49.790;9.620;2023-03-01T13:58:15;12.90;30.10
4103;DHT22;2065;49.790;9.620;2023-03-01T14:00:42;12.80;30.30
4103;DHT22;2065;49.790;9.620;2023-03-01T14:03:14;13.20;29.90
4103;DHT22;2065;49.790;9.620;2023-03-01T14:05:42;13.10;29.20
4103;DHT22;2065;49.790;9.620;2023-03-01T14:08:22;13.10;29.60
4103;DHT22;2065;49.790;9.620;2023-03-01T14:11:00;13.10;29.70
4103;DHT22;2065;49.790;9.620;2023-03-01T14:13:40;13.20;29.90
4103;DHT22;2065;49.790;9.620;2023-03-01T14:16:23;13.20;29.80
4103;DHT22;2065;49.790;9.620;2023-03-01T14:19:02;13.20;29.80
4103;DHT22;2065;49.790;9.620;2023-03-01T14:21:34;13.30;29.70
4103;DHT22;2065;49.790;9.620;2023-03-01T14:24:02;13.50;29.20
4103;DHT22;2065;49.790;9.620;2023-03-01T14:26:31;13.00;29.30
4103;DHT22;2065;49.790;9.620;2023-03-01T14:28:58;12.90;29.70
4103;DHT22;2065;49.790;9.620;2023-03-01T14:31:35;12.60;30.30
4103;DHT22;2065;49.790;9.620;2023-03-01T14:34:04;12.60;30.40
4103;DHT22;2065;49.790;9.620;2023-03-01T14:36:33;12.60;30.40
4103;DHT22;2065;49.790;9.620;2023-03-01T14:39:00;12.90;31.40
4103;DHT22;2065;49.790;9.620;2023-03-01T14:41:34;13.10;30.50
4103;DHT22;2065;49.790;9.620;2023-03-01T14:44:04;13.40;30.00
4103;DHT22;2065;49.790;9.620;2023-03-01T14:46:34;13.10;29.90
4103;DHT22;2065;49.790;9.620;2023-03-01T14:49:05;12.90;29.90
4103;DHT22;2065;49.790;9.620;2023-03-01T14:51:36;12.80;31.00
4103;DHT22;2065;49.790;9.620;2023-03-01T14:54:10;12.70;30.50
4103;DHT22;2065;49.790;9.620;2023-03-01T14:56:45;13.00;31.50
4103;DHT22;2065;49.790;9.620;2023-03-01T14:59:12;13.20;30.90
4103;DHT22;2065;49.790;9.620;2023-03-01T15:01:40;13.10;30.00
4103;DHT22;2065;49.790;9.620;2023-03-01T15:04:12;13.10;30.40
4103;DHT22;2065;49.790;9.620;2023-03-01T15:06:40;13.00;30.50
4103;DHT22;2065;49.790;9.620;2023-03-01T15:09:13;12.90;30.20
4103;DHT22;2065;49.790;9.620;2023-03-01T15:11:40;12.60;30.90
4103;DHT22;2065;49.790;9.620;2023-03-01T15:14:39;12.50;31.30
4103;DHT22;2065;49.790;9.620;2023-03-01T15:17:21;12.60;31.40
4103;DHT22;2065;49.790;9.620;2023-03-01T15:19:51;12.60;31.50
4103;DHT22;2065;49.790;9.620;2023-03-01T15:22:18;12.60;31.20
4103;DHT22;2065;49.790;9.620;2023-03-01T15:24:47;12.90;31.10
4103;DHT22;2065;49.790;9.620;2023-03-01T15:27:17;12.70;30.40
4103;DHT22;2065;49.790;9.620;2023-03-01T15:29:49;12.80;31.50
4103;DHT22;2065;49.790;9.620;2023-03-01T15:32:27;13.00;31.20
4103;DHT22;2065;49.790;9.620;2023-03-01T15:34:57;12.70;31.40
4103;DHT22;2065;49.790;9.620;2023-03-01T15:37:49;12.50;31.70
4103;DHT22;2065;49.790;9.620;2023-03-01T15:40:20;12.30;31.50
4103;DHT22;2065;49.790;9.620;2023-03-01T15:42:50;12.40;31.40
4103;DHT22;2065;49.790;9.620;2023-03-01T15:45:22;12.50;31.50
4103;DHT22;2065;49.790;9.620;2023-03-01T15:47:52;12.70;31.70
4103;DHT22;2065;49.790;9.620;2023-03-01T15:50:22;12.90;32.20
4103;DHT22;2065;49.790;9.620;2023-03-01T15:52:50;12.90;31.30
4103;DHT22;2065;49.790;9.620;2023-03-01T15:55:19;12.80;31.90
4103;DHT22;2065;49.790;9.620;2023-03-01T15:57:46;12.80;31.80
4103;DHT22;2065;49.790;9.620;2023-03-01T16:00:14;12.80;31.80
4103;DHT22;2065;49.790;9.620;2023-03-01T16:02:43;12.70;31.70
4103;DHT22;2065;49.790;9.620;2023-03-01T16:05:17;12.80;32.00
4103;DHT22;2065;49.790;9.620;2023-03-01T16:07:46;12.90;32.60
4103;DHT22;2065;49.790;9.620;2023-03-01T16:10:13;12.90;32.30
4103;DHT22;2065;49.790;9.620;2023-03-01T16:12:40;12.60;31.70
4103;DHT22;2065;49.790;9.620;2023-03-01T16:15:12;12.50;32.20
4103;DHT22;2065;49.790;9.620;2023-03-01T16:17:40;12.50;32.80
4103;DHT22;2065;49.790;9.620;2023-03-01T16:20:08;12.50;32.50
4103;DHT22;2065;49.790;9.620;2023-03-01T16:22:35;12.50;32.50
4103;DHT22;2065;49.790;9.620;2023-03-01T16:25:04;12.60;32.40
4103;DHT22;2065;49.790;9.620;2023-03-01T16:27:32;12.40;32.50
4103;DHT22;2065;49.790;9.620;2023-03-01T16:29:59;12.40;32.50
4103;DHT22;2065;49.790;9.620;2023-03-01T16:32:26;12.00;32.90
4103;DHT22;2065;49.790;9.620;2023-03-01T16:34:53;12.00;33.40
4103;DHT22;2065;49.790;9.620;2023-03-01T16:37:20;11.60;34.20
4103;DHT22;2065;49.790;9.620;2023-03-01T16:39:47;11.60;34.00
4103;DHT22;2065;49.790;9.620;2023-03-01T16:42:18;11.60;33.90